createdAt,value
2017-09-06T00:00:39.957Z,99.90
2017-09-06T00:03:07.429Z,99.90
2017-09-06T00:05:34.921Z,99.90
2017-09-06T00:08:02.410Z,99.90
2017-09-06T00:10:29.885Z,99.90
2017-09-06T00:12:57.378Z,99.90
2017-09-06T00:15:25.097Z,99.90
2017-09-06T00:17:52.569Z,99.90
2017-09-06T00:20:20.065Z,99.90
2017-09-06T00:22:48.309Z,99.90
2017-09-06T00:25:15.784Z,99.90
2017-09-06T00:27:43.278Z,99.90
2017-09-06T00:30:11.066Z,99.90
2017-09-06T00:32:38.537Z,99.90
2017-09-06T00:35:06.033Z,99.90
2017-09-06T00:37:33.510Z,99.90
2017-09-06T00:40:01.053Z,99.90
2017-09-06T00:42:28.546Z,99.90
2017-09-06T00:44:56.022Z,99.90
2017-09-06T00:47:23.494Z,99.90
2017-09-06T00:49:50.985Z,99.90
2017-09-06T00:52:18.456Z,99.90
2017-09-06T00:54:45.925Z,99.90
2017-09-06T00:57:13.417Z,99.90
2017-09-06T00:59:40.889Z,99.90
2017-09-06T01:02:08.357Z,99.90
2017-09-06T01:04:35.857Z,99.90
2017-09-06T01:07:03.337Z,99.90
2017-09-06T01:09:30.812Z,99.90
2017-09-06T01:11:58.309Z,99.90
2017-09-06T01:14:25.780Z,99.90
2017-09-06T01:16:54.672Z,99.90
2017-09-06T01:19:22.294Z,99.90
2017-09-06T01:21:49.776Z,99.90
2017-09-06T01:24:17.247Z,99.90
2017-09-06T01:26:44.749Z,99.90
2017-09-06T01:29:12.220Z,99.90
2017-09-06T01:31:39.689Z,99.90
2017-09-06T01:34:07.957Z,99.90
2017-09-06T01:36:35.434Z,99.90
2017-09-06T01:39:03.681Z,99.90
2017-09-06T01:41:31.185Z,99.90
2017-09-06T01:43:58.656Z,99.90
2017-09-06T01:46:26.126Z,99.90
2017-09-06T01:48:53.628Z,99.90
2017-09-06T01:51:21.097Z,99.90
2017-09-06T01:53:48.565Z,99.90
2017-09-06T01:56:16.062Z,99.90
2017-09-06T01:58:43.537Z,99.90
2017-09-06T02:01:11.017Z,99.90
2017-09-06T02:03:38.510Z,99.90
2017-09-06T02:06:05.984Z,99.90
2017-09-06T02:08:33.457Z,99.90
2017-09-06T02:11:00.954Z,99.90
2017-09-06T02:13:28.764Z,99.90
2017-09-06T02:15:56.233Z,99.90
2017-09-06T02:18:23.725Z,99.90
2017-09-06T02:20:51.962Z,99.90
2017-09-06T02:23:19.433Z,99.90
2017-09-06T02:25:46.929Z,99.90
2017-09-06T02:28:14.402Z,99.90
2017-09-06T02:30:41.873Z,99.90
2017-09-06T02:33:09.495Z,99.90
2017-09-06T02:35:36.986Z,99.90
2017-09-06T02:38:04.461Z,99.90
2017-09-06T02:40:31.963Z,99.90
2017-09-06T02:42:59.441Z,99.90
2017-09-06T02:45:26.914Z,99.90
2017-09-06T02:47:54.406Z,99.90
2017-09-06T02:50:21.881Z,99.90
2017-09-06T02:52:50.121Z,99.90
2017-09-06T02:55:18.389Z,99.90
2017-09-06T02:57:45.856Z,99.90
2017-09-06T03:00:13.333Z,99.90
2017-09-06T03:02:40.833Z,99.90
2017-09-06T03:05:08.553Z,99.90
2017-09-06T03:07:36.021Z,99.90
2017-09-06T03:10:04.285Z,99.90
2017-09-06T03:12:31.757Z,99.90
2017-09-06T03:14:59.224Z,99.90
2017-09-06T03:17:26.716Z,99.90
2017-09-06T03:19:54.480Z,99.90
2017-09-06T03:22:21.949Z,99.90
2017-09-06T03:24:49.441Z,99.90
2017-09-06T03:27:16.911Z,99.90
2017-09-06T03:29:44.380Z,99.90
2017-09-06T03:32:11.881Z,99.90
2017-09-06T03:34:39.369Z,99.90
2017-09-06T03:37:06.838Z,99.90
2017-09-06T03:39:34.331Z,99.90
2017-09-06T03:42:01.829Z,99.90
2017-09-06T03:44:29.301Z,99.90
2017-09-06T03:46:56.792Z,99.90
2017-09-06T03:49:24.269Z,99.90
2017-09-06T03:51:51.741Z,99.90
2017-09-06T03:54:19.233Z,99.90
2017-09-06T03:56:47.472Z,99.90
2017-09-06T03:59:14.949Z,99.90
2017-09-06T04:01:42.831Z,99.90
2017-09-06T04:04:10.853Z,99.90
2017-09-06T04:06:38.322Z,99.90
2017-09-06T04:09:05.826Z,99.90
2017-09-06T04:11:33.297Z,99.90
2017-09-06T04:14:00.771Z,99.90
2017-09-06T04:16:28.261Z,99.90
2017-09-06T04:18:55.731Z,99.90
2017-09-06T04:21:23.201Z,99.90
2017-09-06T04:23:50.693Z,99.90
2017-09-06T04:26:18.161Z,99.90
2017-09-06T04:28:45.633Z,99.90
2017-09-06T04:31:13.129Z,99.90
2017-09-06T04:33:41.463Z,99.90
2017-09-06T04:36:08.933Z,99.90
2017-09-06T04:38:36.420Z,99.90
2017-09-06T04:41:03.896Z,99.90
2017-09-06T04:43:31.368Z,99.90
2017-09-06T04:45:58.865Z,99.90
2017-09-06T04:48:26.333Z,99.90
2017-09-06T04:50:53.808Z,99.90
2017-09-06T04:53:21.313Z,99.90
2017-09-06T04:55:48.793Z,99.90
2017-09-06T04:58:16.266Z,99.90
2017-09-06T05:00:43.757Z,99.90
2017-09-06T05:03:11.550Z,99.90
2017-09-06T05:05:39.035Z,99.90
2017-09-06T05:08:06.545Z,99.90
2017-09-06T05:10:34.017Z,99.90
2017-09-06T05:13:01.490Z,99.90
2017-09-06T05:15:28.985Z,99.90
2017-09-06T05:17:56.457Z,99.90
2017-09-06T05:20:24.693Z,99.90
2017-09-06T05:22:52.185Z,99.90
2017-09-06T05:25:19.657Z,99.90
2017-09-06T05:27:47.130Z,99.90
2017-09-06T05:30:14.629Z,99.90
2017-09-06T05:32:42.098Z,99.90
2017-09-06T05:35:09.570Z,99.90
2017-09-06T05:37:37.841Z,99.90
2017-09-06T05:40:05.318Z,99.90
2017-09-06T05:42:32.794Z,99.90
2017-09-06T05:45:00.294Z,99.90
2017-09-06T05:47:27.766Z,99.90
2017-09-06T05:49:55.237Z,99.90
2017-09-06T05:52:22.733Z,99.90
2017-09-06T05:54:50.205Z,99.90
2017-09-06T05:57:17.682Z,99.90
2017-09-06T05:59:45.173Z,99.90
2017-09-06T06:02:12.650Z,99.90
2017-09-06T06:04:40.122Z,99.90
2017-09-06T06:07:07.618Z,99.90
2017-09-06T06:09:35.333Z,99.90
2017-09-06T06:12:02.808Z,99.90
2017-09-06T06:14:30.302Z,99.90
2017-09-06T06:16:57.777Z,99.90
2017-09-06T06:19:25.252Z,99.90
2017-09-06T06:21:52.766Z,99.90
2017-09-06T06:24:20.481Z,99.90
2017-09-06T06:26:47.953Z,99.90
2017-09-06T06:29:16.214Z,99.90
2017-09-06T06:31:43.689Z,99.90
2017-09-06T06:34:11.161Z,99.90
2017-09-06T06:36:38.665Z,99.90
2017-09-06T06:39:06.137Z,99.90
2017-09-06T06:41:33.609Z,99.90
2017-09-06T06:44:01.101Z,99.90
2017-09-06T06:46:28.574Z,99.90
2017-09-06T06:48:56.810Z,99.90
2017-09-06T06:51:24.306Z,99.90
2017-09-06T06:53:51.786Z,99.90
2017-09-06T06:56:19.269Z,99.90
2017-09-06T06:58:46.788Z,99.90
2017-09-06T07:01:14.270Z,99.90
2017-09-06T07:03:41.745Z,99.90
2017-09-06T07:06:09.245Z,99.90
2017-09-06T07:08:36.718Z,99.90
2017-09-06T07:11:04.190Z,99.90
2017-09-06T07:13:31.681Z,99.90
2017-09-06T07:15:59.153Z,99.90
2017-09-06T07:18:27.642Z,99.90
2017-09-06T07:20:55.137Z,99.90
2017-09-06T07:23:22.617Z,99.90
2017-09-06T07:25:50.086Z,99.90
2017-09-06T07:28:17.590Z,99.90
2017-09-06T07:30:45.069Z,99.90
2017-09-06T07:33:12.544Z,99.90
2017-09-06T07:35:40.037Z,99.90
2017-09-06T07:38:07.508Z,99.90
2017-09-06T07:40:34.977Z,99.90
2017-09-06T07:43:02.489Z,99.90
2017-09-06T07:45:29.965Z,99.90
2017-09-06T07:47:57.437Z,99.90
2017-09-06T07:50:24.954Z,99.90
2017-09-06T07:52:52.425Z,99.90
2017-09-06T07:55:19.894Z,99.90
2017-09-06T07:57:47.398Z,99.90
2017-09-06T08:00:14.877Z,99.90
2017-09-06T08:02:42.357Z,99.90
2017-09-06T08:05:09.877Z,99.90
2017-09-06T08:07:37.357Z,99.90
2017-09-06T08:10:05.115Z,99.90
2017-09-06T08:12:32.618Z,99.90
2017-09-06T08:15:00.089Z,99.90
2017-09-06T08:17:27.561Z,99.90
2017-09-06T08:19:55.060Z,99.90
2017-09-06T08:22:22.529Z,99.90
2017-09-06T08:24:50.002Z,99.90
2017-09-06T08:27:17.498Z,99.90
2017-09-06T08:29:44.985Z,99.90
2017-09-06T08:32:12.671Z,99.90
2017-09-06T08:34:40.164Z,99.90
2017-09-06T08:37:07.637Z,99.90
2017-09-06T08:39:35.114Z,99.90
2017-09-06T08:42:02.610Z,99.90
2017-09-06T08:44:30.110Z,99.90
2017-09-06T08:46:57.581Z,99.90
2017-09-06T08:49:25.069Z,99.30
2017-09-06T08:51:52.541Z,99.90
2017-09-06T08:54:20.777Z,98.40
2017-09-06T08:56:48.271Z,98.40
2017-09-06T08:59:15.745Z,97.70
2017-09-06T09:01:43.221Z,98.60
2017-09-06T09:04:10.722Z,98.60
2017-09-06T09:06:38.461Z,98.50
2017-09-06T09:09:05.942Z,98.50
2017-09-06T09:11:33.437Z,98.60
2017-09-06T09:14:00.909Z,99.10
2017-09-06T09:16:28.382Z,99.10
2017-09-06T09:18:55.878Z,99.30
2017-09-06T09:21:23.350Z,99.90
2017-09-06T09:23:50.821Z,99.90
2017-09-06T09:26:18.313Z,99.40
2017-09-06T09:28:45.795Z,99.90
2017-09-06T09:31:13.299Z,99.30
2017-09-06T09:33:41.545Z,98.30
2017-09-06T09:36:09.019Z,98.30
2017-09-06T09:38:36.494Z,99.10
2017-09-06T09:41:03.985Z,99.70
2017-09-06T09:43:31.474Z,98.70
2017-09-06T09:45:58.946Z,98.70
2017-09-06T09:48:27.206Z,98.30
2017-09-06T09:50:54.677Z,98.20
2017-09-06T09:53:22.914Z,98.30
2017-09-06T09:55:50.409Z,98.30
2017-09-06T09:58:17.882Z,95.20
2017-09-06T10:00:45.402Z,94.60
2017-09-06T10:03:12.900Z,92.40
2017-09-06T10:05:40.383Z,91.70
2017-09-06T10:08:07.861Z,90.90
2017-09-06T10:10:35.357Z,90.80
2017-09-06T10:13:02.830Z,90.50
2017-09-06T10:15:30.301Z,90.80
2017-09-06T10:17:57.793Z,91.20
2017-09-06T10:20:25.265Z,91.90
2017-09-06T10:22:52.733Z,91.60
2017-09-06T10:25:20.225Z,92.90
2017-09-06T10:27:47.698Z,93.30
2017-09-06T10:30:15.174Z,94.10
2017-09-06T10:32:42.666Z,95.00
2017-09-06T10:35:10.905Z,97.20
2017-09-06T10:37:38.377Z,97.10
2017-09-06T10:40:05.874Z,98.20
2017-09-06T10:42:33.346Z,99.40
2017-09-06T10:45:00.821Z,98.80
2017-09-06T10:47:28.329Z,97.80
2017-09-06T10:49:56.565Z,97.20
2017-09-06T10:52:24.042Z,97.20
2017-09-06T10:54:51.538Z,97.80
2017-09-06T10:57:19.011Z,96.60
2017-09-06T10:59:46.481Z,95.30
2017-09-06T11:02:14.743Z,95.10
2017-09-06T11:04:42.222Z,95.00
2017-09-06T11:07:09.693Z,94.40
2017-09-06T11:09:37.193Z,94.80
2017-09-06T11:12:04.693Z,94.40
2017-09-06T11:14:32.169Z,95.80
2017-09-06T11:16:59.665Z,97.60
2017-09-06T11:19:27.248Z,98.00
2017-09-06T11:21:54.728Z,97.40
2017-09-06T11:24:22.229Z,97.50
2017-09-06T11:26:49.705Z,96.30
2017-09-06T11:29:17.174Z,95.90
2017-09-06T11:31:44.665Z,95.00
2017-09-06T11:34:12.139Z,95.10
2017-09-06T11:36:39.618Z,94.40
2017-09-06T11:39:07.879Z,92.00
2017-09-06T11:41:35.349Z,91.90
2017-09-06T11:44:03.590Z,99.90
2017-09-06T11:46:31.081Z,99.90
2017-09-06T11:48:58.553Z,99.90
2017-09-06T11:51:26.026Z,99.90
2017-09-06T11:53:53.524Z,99.90
2017-09-06T11:56:21.001Z,99.90
2017-09-06T11:58:48.473Z,99.90
2017-09-06T12:01:15.961Z,99.90
2017-09-06T12:03:43.438Z,99.90
2017-09-06T12:06:10.911Z,99.90
2017-09-06T12:08:38.405Z,99.90
2017-09-06T12:11:05.878Z,99.90
2017-09-06T12:13:33.354Z,99.90
2017-09-06T12:16:00.845Z,99.90
2017-09-06T12:18:28.318Z,99.90
2017-09-06T12:20:55.788Z,99.90
2017-09-06T12:23:23.281Z,99.90
2017-09-06T12:25:50.749Z,99.90
2017-09-06T12:28:18.225Z,99.90
2017-09-06T12:30:45.749Z,99.90
2017-09-06T12:33:13.225Z,99.90
2017-09-06T12:35:40.698Z,99.90
2017-09-06T12:38:08.233Z,99.90
2017-09-06T12:40:35.714Z,99.90
2017-09-06T12:43:03.189Z,99.90
2017-09-06T12:45:31.446Z,99.90
2017-09-06T12:47:58.917Z,99.90
2017-09-06T12:50:26.390Z,99.90
2017-09-06T12:52:54.649Z,99.90
2017-09-06T12:55:22.125Z,99.90
2017-09-06T12:57:49.602Z,99.90
2017-09-06T13:00:17.114Z,99.90
2017-09-06T13:02:44.585Z,99.80
2017-09-06T13:05:12.057Z,98.40
2017-09-06T13:07:40.317Z,99.30
2017-09-06T13:10:07.792Z,99.30
2017-09-06T13:12:35.581Z,99.90
2017-09-06T13:15:03.077Z,98.40
2017-09-06T13:17:30.553Z,97.30
2017-09-06T13:19:58.026Z,97.60
2017-09-06T13:22:25.523Z,97.70
2017-09-06T13:24:53.004Z,95.50
2017-09-06T13:27:20.478Z,95.50
2017-09-06T13:29:47.977Z,94.00
2017-09-06T13:32:15.455Z,92.50
2017-09-06T13:34:42.929Z,93.90
2017-09-06T13:37:10.422Z,94.30
2017-09-06T13:39:37.893Z,94.80
2017-09-06T13:42:05.373Z,95.30
2017-09-06T13:44:32.866Z,94.80
2017-09-06T13:47:00.341Z,94.50
2017-09-06T13:49:27.817Z,92.70
2017-09-06T13:51:55.314Z,91.50
2017-09-06T14:07:23.037Z,87.80
2017-09-06T14:09:50.512Z,87.60
2017-09-06T14:12:17.985Z,86.50
2017-09-06T14:14:45.477Z,84.10
2017-09-06T14:17:12.953Z,84.70
2017-09-06T14:19:40.429Z,86.10
2017-09-06T14:22:07.922Z,86.30
2017-09-06T14:24:35.650Z,86.90
2017-09-06T14:27:03.121Z,85.60
2017-09-06T14:29:30.797Z,85.40
2017-09-06T14:31:58.272Z,86.00
2017-09-06T14:34:25.742Z,85.50
2017-09-06T14:36:53.233Z,86.20
2017-09-06T14:39:20.705Z,80.50
2017-09-06T14:41:48.178Z,81.70
2017-09-06T14:44:15.677Z,81.60
2017-09-06T14:46:43.158Z,82.00
2017-09-06T14:49:10.638Z,82.30
2017-09-06T14:51:38.138Z,83.40
2017-09-06T14:54:05.614Z,79.20
2017-09-06T14:56:33.085Z,77.80
2017-09-06T14:59:00.583Z,76.60
2017-09-06T15:01:28.057Z,77.80
2017-09-06T15:03:55.773Z,77.60
2017-09-06T15:06:23.269Z,77.40
2017-09-06T15:08:50.745Z,79.10
2017-09-06T15:11:18.981Z,76.70
2017-09-06T15:13:47.245Z,76.40
2017-09-06T15:16:14.783Z,76.30
2017-09-06T15:18:42.261Z,76.50
2017-09-06T15:21:09.753Z,75.90
2017-09-06T15:23:37.269Z,76.60
2017-09-06T15:26:05.033Z,78.60
2017-09-06T15:28:32.802Z,78.10
2017-09-06T15:31:00.277Z,79.50
2017-09-06T15:33:27.745Z,80.00
2017-09-06T15:35:55.240Z,81.00
2017-09-06T15:38:22.715Z,80.70
2017-09-06T15:40:50.185Z,81.80
2017-09-06T15:43:17.681Z,80.00
2017-09-06T15:45:45.933Z,81.90
2017-09-06T15:48:13.405Z,81.60
2017-09-06T15:50:40.898Z,80.50
2017-09-06T15:53:09.145Z,82.00
2017-09-06T15:55:36.626Z,82.00
2017-09-06T15:58:04.121Z,80.50
2017-09-06T16:00:31.597Z,78.20
2017-09-06T16:02:59.069Z,79.80
2017-09-06T16:05:26.566Z,79.60
2017-09-06T16:07:54.042Z,79.30
2017-09-06T16:10:21.516Z,78.30
2017-09-06T16:12:49.012Z,78.10
2017-09-06T16:15:16.493Z,79.40
2017-09-06T16:17:43.965Z,78.60
2017-09-06T16:20:12.053Z,79.40
2017-09-06T16:22:39.533Z,79.30
2017-09-06T16:25:07.366Z,77.60
2017-09-06T16:27:34.857Z,77.90
2017-09-06T16:30:02.330Z,77.60
2017-09-06T16:32:29.801Z,78.10
2017-09-06T16:34:57.297Z,77.50
2017-09-06T16:37:24.785Z,77.10
2017-09-06T16:39:52.261Z,78.70
2017-09-06T16:42:19.765Z,79.40
2017-09-06T16:44:47.241Z,79.00
2017-09-06T16:47:14.720Z,80.10
2017-09-06T16:49:42.217Z,79.50
2017-09-06T16:52:09.697Z,81.20
2017-09-06T16:54:37.181Z,79.20
2017-09-06T16:57:04.917Z,79.90
2017-09-06T16:59:32.407Z,80.40
2017-09-06T17:02:00.076Z,80.80
2017-09-06T17:04:27.613Z,81.20
2017-09-06T17:06:55.316Z,82.30
2017-09-06T17:09:46.162Z,80.80
2017-09-06T17:12:13.650Z,80.30
2017-09-06T17:14:41.121Z,80.70
2017-09-06T17:17:08.637Z,80.30
2017-09-06T17:19:36.166Z,81.20
2017-09-06T17:22:03.642Z,81.80
2017-09-06T17:24:31.135Z,82.00
2017-09-06T17:26:58.614Z,82.30
2017-09-06T17:29:26.114Z,82.60
2017-09-06T17:31:53.676Z,82.90
2017-09-06T17:34:21.166Z,82.30
2017-09-06T17:36:48.645Z,82.00
2017-09-06T17:39:16.137Z,82.70
2017-09-06T17:41:43.627Z,82.60
2017-09-06T17:44:11.101Z,83.60
2017-09-06T17:46:38.596Z,84.10
2017-09-06T17:49:06.075Z,83.90
2017-09-06T17:51:33.549Z,85.00
2017-09-06T17:54:01.051Z,85.10
2017-09-06T17:56:28.574Z,84.30
2017-09-06T17:58:56.045Z,84.60
2017-09-06T18:01:23.541Z,83.90
2017-09-06T18:03:51.781Z,82.50
2017-09-06T18:06:19.259Z,82.50
2017-09-06T18:08:46.765Z,82.90
2017-09-06T18:11:14.525Z,83.20
2017-09-06T18:13:42.010Z,83.40
2017-09-06T18:16:09.506Z,83.30
2017-09-06T18:18:37.750Z,82.70
2017-09-06T18:21:05.477Z,82.60
2017-09-06T18:23:33.032Z,83.30
2017-09-06T18:26:00.573Z,83.30
2017-09-06T18:28:28.082Z,83.90
2017-09-06T18:30:56.450Z,83.70
2017-09-06T18:33:23.998Z,83.80
2017-09-06T18:35:51.472Z,83.60
2017-09-06T18:38:19.285Z,83.70
2017-09-06T18:40:46.838Z,84.40
2017-09-06T18:43:14.322Z,85.50
2017-09-06T18:45:41.829Z,85.30
2017-09-06T18:48:09.309Z,86.00
2017-09-06T18:50:36.814Z,85.80
2017-09-06T18:53:04.314Z,85.80
2017-09-06T18:55:32.553Z,86.40
2017-09-06T18:58:00.029Z,86.40
2017-09-06T19:00:27.528Z,87.50
2017-09-06T19:02:54.997Z,88.30
2017-09-06T19:05:22.470Z,89.10
2017-09-06T19:07:50.730Z,88.10
2017-09-06T19:10:18.205Z,88.00
2017-09-06T19:12:45.682Z,88.60
2017-09-06T19:15:13.179Z,88.80
2017-09-06T19:17:41.416Z,88.70
2017-09-06T19:20:09.146Z,88.70
2017-09-06T19:22:36.645Z,89.40
2017-09-06T19:25:04.121Z,88.70
2017-09-06T19:27:32.357Z,89.40
2017-09-06T19:29:59.853Z,89.40
2017-09-06T19:32:28.089Z,89.80
2017-09-06T19:34:55.786Z,89.80
2017-09-06T19:37:23.279Z,90.20
2017-09-06T19:39:50.752Z,90.80
2017-09-06T19:42:18.226Z,90.30
2017-09-06T19:44:45.717Z,90.00
2017-09-06T19:47:13.189Z,90.20
2017-09-06T19:49:41.433Z,90.10
2017-09-06T19:52:08.942Z,90.10
2017-09-06T19:54:36.418Z,90.30
2017-09-06T19:57:03.894Z,90.20
2017-09-06T19:59:31.389Z,90.70
2017-09-06T20:01:59.183Z,90.80
2017-09-06T20:04:26.656Z,91.30
2017-09-06T20:06:54.146Z,91.10
2017-09-06T20:09:21.621Z,91.40
2017-09-06T20:11:49.856Z,91.60
2017-09-06T20:14:17.353Z,91.60
2017-09-06T20:16:44.879Z,91.80
2017-09-06T20:19:12.334Z,91.80
2017-09-06T20:21:41.333Z,92.30
2017-09-06T20:24:08.904Z,92.30
2017-09-06T20:26:36.465Z,92.40
2017-09-06T20:29:03.957Z,92.30
2017-09-06T20:31:31.499Z,92.90
2017-09-06T20:33:58.979Z,94.70
2017-09-06T20:36:26.472Z,96.00
2017-09-06T20:38:53.945Z,95.90
2017-09-06T20:41:21.425Z,97.20
2017-09-06T20:43:48.922Z,97.50
2017-09-06T20:46:16.402Z,96.90
2017-09-06T20:48:43.878Z,97.40
2017-09-06T20:51:11.370Z,97.30
2017-09-06T20:53:38.870Z,97.40
2017-09-06T20:56:06.351Z,97.20
2017-09-06T20:58:33.845Z,97.20
2017-09-06T21:01:01.318Z,97.20
2017-09-06T21:03:28.791Z,96.70
2017-09-06T21:05:56.281Z,96.60
2017-09-06T21:08:23.757Z,96.30
2017-09-06T21:10:51.229Z,96.50
2017-09-06T21:13:18.723Z,96.30
2017-09-06T21:15:46.466Z,96.10
2017-09-06T21:18:13.933Z,96.40
2017-09-06T21:20:41.425Z,95.90
2017-09-06T21:23:08.901Z,95.80
2017-09-06T21:25:36.389Z,95.90
2017-09-06T21:28:03.881Z,95.90
2017-09-06T21:30:31.613Z,96.10
2017-09-06T21:32:59.086Z,96.10
2017-09-06T21:35:27.099Z,96.40
2017-09-06T21:37:55.337Z,96.50
2017-09-06T21:40:22.805Z,96.50
2017-09-06T21:42:50.323Z,96.50
2017-09-06T21:45:17.802Z,96.60
2017-09-06T21:47:45.770Z,96.90
2017-09-06T21:50:13.261Z,96.50
2017-09-06T21:52:40.734Z,96.50
2017-09-06T21:55:08.205Z,96.80
2017-09-06T21:57:35.741Z,96.60
2017-09-06T22:00:03.986Z,96.80
2017-09-06T22:02:31.457Z,96.80
2017-09-06T22:04:59.029Z,97.20
2017-09-06T22:07:26.505Z,98.80
2017-09-06T22:09:54.744Z,99.90
2017-09-06T22:12:22.237Z,99.90
2017-09-06T22:14:49.714Z,99.90
2017-09-06T22:17:17.189Z,99.90
2017-09-06T22:19:44.681Z,99.90
2017-09-06T22:22:12.153Z,99.90
2017-09-06T22:24:39.857Z,99.90
2017-09-06T22:27:22.233Z,99.90
2017-09-06T22:29:49.708Z,99.90
2017-09-06T22:32:17.181Z,99.90
2017-09-06T22:34:44.678Z,99.90
2017-09-06T22:37:12.154Z,99.90
2017-09-06T22:39:39.629Z,99.90
2017-09-06T22:42:07.131Z,99.90
2017-09-06T22:44:34.815Z,99.90
2017-09-06T22:47:02.297Z,99.90
2017-09-06T22:49:30.553Z,99.90
2017-09-06T22:51:58.059Z,99.90
2017-09-06T22:54:25.566Z,99.90
2017-09-06T22:56:53.103Z,99.90
2017-09-06T22:59:20.577Z,99.90
2017-09-06T23:01:48.053Z,99.90
2017-09-06T23:04:15.557Z,99.90
2017-09-06T23:06:43.033Z,99.90
2017-09-06T23:09:10.505Z,99.90
2017-09-06T23:11:37.997Z,99.90
2017-09-06T23:14:05.534Z,99.90
2017-09-06T23:16:33.772Z,99.90
2017-09-06T23:19:01.265Z,99.90
2017-09-06T23:21:29.506Z,99.90
2017-09-06T23:23:56.977Z,99.90
2017-09-06T23:26:24.477Z,99.90
2017-09-06T23:28:52.016Z,99.90
2017-09-06T23:31:20.257Z,99.90
2017-09-06T23:33:47.753Z,99.90
2017-09-06T23:36:15.234Z,99.90
2017-09-06T23:38:42.705Z,99.90
2017-09-06T23:41:10.197Z,99.90
2017-09-06T23:43:37.682Z,99.90
2017-09-06T23:46:05.921Z,99.90
2017-09-06T23:48:33.568Z,99.90
2017-09-06T23:51:01.047Z,99.90
2017-09-06T23:53:28.519Z,99.90
2017-09-06T23:55:56.009Z,99.90
2017-09-06T23:58:23.482Z,99.90
